Crawford, NE (69339)

10:06 PM MDT on July 26, 2016 (GMT -0600)
Deadman | | Change Station
Active Advisory: Special Statement Active Notice: Local Storm Report

Elev 4180 ft 42.58 °N, 103.47 °W | Updated 0 second ago

Clear
Clear
68.7 °F
Feels Like 68.7 °F
N
3.7
Wind Variable Wind from ESE
Gusts 7.8 mph

Today
High -- | Low -- °F
--% Chance of Precip.
Yesterday
High -- | Low -- °F
Precip. -- in
Pressure 29.98 in
Visibility 10.0 miles
Clouds Clear
Dew Point 59 °F
Humidity 71%
Rainfall 0.09 in
Snow Depth Not available.
5:39 AM 8:19 PM
Waning Gibbous, 48% visible
METAR KCDR 270353Z AUTO 34006KT 10SM CLR 20/15 A3005 RMK AO2 PRESRR SLP151 T02000150
Pressure 29.98 in
Visibility 10.0 miles
Clouds Clear
Dew Point 59 °F
Humidity 71%
Rainfall 0.09 in
Snow Depth Not available.
5:39 AM 8:19 PM
Waning Gibbous, 48% visible
METAR KCDR 270353Z AUTO 34006KT 10SM CLR 20/15 A3005 RMK AO2 PRESRR SLP151 T02000150

10-Day Weather Forecast

Almanac

Astronomy

Jul. 26, 2016 Rise Set
Actual Time
Civil Twilight
Nautical Twilight
Astronomical Twilight
Moon
Length of Visible Light
Length of Day
Tomorrow will be .
, % of the Moon is Illuminated

Today's Extremes

State Highs State Lows

Community

WunderPhotos

Upload Photos

1,927,809 photos uploaded!

WunderBlog® & News

Nearby

Air Quality

  Air Quality AQ Index Pollutant
Not available.

Snow Depth

Station Depth Elevation

Earthquake Activity

City Distance Mag. Time & Date
Minimum magnitude displayed is 2.5.

Coastal Water Temperatures

Place Temperature

Stations

Nearby Weather Stations

Station Location Temp. Windchill Dew Point Humidity Wind Precip. Elev Updated Type
                   

Watches & Warnings

Special Statement
Issued: 9:30 PM MDT Jul. 26, 2016 – National Weather Service

... Significant weather advisory for southeastern Sioux... southwestern
Dawes and northwestern Box Butte counties until 1015 PM MDT...

At 930 PM MDT... Doppler radar was tracking a strong thunderstorm near
flahertys corner... or 33 miles northwest of Alliance... moving east at
25 mph.

Nickel size hail and wind gusts up to 50 mph will be possible with
this storm.

Locations impacted include...
flahertys corner and Marsland.

Lat... Lon 4233 10352 4245 10352 4244 10304 4224 10316
time... Mot... loc 0330z 279deg 20kt 4240 10339


Cox

930 PM MDT Tue Jul 26 2016

... Significant weather advisory for southeastern Sioux... southwestern
Dawes and northwestern Box Butte counties until 1015 PM MDT...

At 930 PM MDT... Doppler radar was tracking a strong thunderstorm near
flahertys corner... or 33 miles northwest of Alliance... moving east at
25 mph.

Nickel size hail and wind gusts up to 50 mph will be possible with
this storm.

Locations impacted include...
flahertys corner and Marsland.

Lat... Lon 4233 10352 4245 10352 4244 10304 4224 10316
time... Mot... loc 0330z 279deg 20kt 4240 10339


Cox